Time;durP1;ratioP1;P1;durP2;ratioP2;P2;SDS_P1;SDS_P2;PMS_P1;PMS_P2;Temp;Humidity;BMP_temperature;BMP_pressure;BME280_temperature;BME280_humidity;BME280_pressure;Samples;Min_cycle;Max_cycle;Signal;HPM_P1;HPM_P2
2022/01/22 00:00:46;;;;;;;5.85;2.15;;;-3.50;99.90;;;-3.80;100.00;97688.28;5062602;27;131115;-71
2022/01/22 00:03:19;;;;;;;3.70;1.83;;;-3.50;99.90;;;-3.81;100.00;97682.19;5061911;27;119063;-71
2022/01/22 00:05:49;;;;;;;3.28;1.63;;;-3.50;99.90;;;-3.83;100.00;97700.22;5056404;27;113915;-71
2022/01/22 00:08:19;;;;;;;4.50;1.90;;;-3.50;99.90;;;-3.86;100.00;97695.44;5063670;27;129192;-71
2022/01/22 00:10:52;;;;;;;5.80;2.30;;;-3.60;99.90;;;-3.85;100.00;97701.53;5055868;27;130027;-70
2022/01/22 00:16:07;;;;;;;3.92;2.20;;;-3.60;99.90;;;-3.85;100.00;97696.22;5064589;27;112739;-71
2022/01/22 00:18:36;;;;;;;5.95;1.80;;;-3.60;99.90;;;-3.84;100.00;97703.91;5064233;27;130385;-71
2022/01/22 00:21:04;;;;;;;2.70;1.52;;;-3.60;99.90;;;-3.73;100.00;97699.44;5062548;27;129773;-71
2022/01/22 00:23:37;;;;;;;3.60;2.17;;;-3.60;99.90;;;-3.78;100.00;97712.69;5064228;27;118702;-71
2022/01/22 00:26:06;;;;;;;4.57;2.00;;;-3.60;99.90;;;-3.80;100.00;97704.19;5063294;27;113475;-71
2022/01/22 00:28:36;;;;;;;4.72;2.00;;;-3.60;99.90;;;-3.78;100.00;97710.03;5062183;27;130425;-71
2022/01/22 00:31:04;;;;;;;3.40;1.67;;;-3.60;99.90;;;-3.75;100.00;97712.16;5061230;27;130266;-71
2022/01/22 00:33:35;;;;;;;5.18;2.10;;;-3.60;99.90;;;-3.82;100.00;97720.38;5063921;27;119032;-71
2022/01/22 00:36:07;;;;;;;4.72;2.08;;;-3.60;99.90;;;-3.73;100.00;97710.03;5065381;27;113896;-71
2022/01/22 00:38:37;;;;;;;5.38;1.88;;;-3.60;99.90;;;-3.70;100.00;97709.50;5076957;27;129781;-71
2022/01/22 00:41:06;;;;;;;4.88;1.60;;;-3.50;99.90;;;-3.69;100.00;97710.31;5060313;27;129812;-71
2022/01/22 00:43:35;;;;;;;5.00;2.00;;;-3.60;99.90;;;-3.70;100.00;97708.72;5061614;27;118709;-71
2022/01/22 00:46:04;;;;;;;3.75;1.77;;;-3.60;99.90;;;-3.75;100.00;97721.97;5044090;27;112518;-71
2022/01/22 00:48:33;;;;;;;5.10;2.33;;;-3.50;99.90;;;-3.64;100.00;97713.75;5062203;27;129739;-71
2022/01/22 00:51:03;;;;;;;3.30;1.77;;;-3.60;99.90;;;-3.69;100.00;97713.75;5061007;27;130407;-71
2022/01/22 00:53:32;;;;;;;4.68;2.15;;;-3.50;99.90;;;-3.67;100.00;97719.59;5062633;27;118716;-70
2022/01/22 00:56:02;;;;;;;4.95;2.00;;;-3.60;99.90;;;-3.62;100.00;97716.16;5064437;27;113307;-71
2022/01/22 00:58:32;;;;;;;4.35;2.00;;;-3.50;99.90;;;-3.65;100.00;97728.06;5060540;27;130798;-71
2022/01/22 01:01:00;;;;;;;3.38;1.73;;;-3.50;99.90;;;-3.64;100.00;97729.69;5060279;27;129880;-72
2022/01/22 01:03:32;;;;;;;2.97;1.60;;;-3.50;99.90;;;-3.64;100.00;97719.06;5062554;27;118520;-71
2022/01/22 01:06:03;;;;;;;3.10;1.70;;;-3.50;99.90;;;-3.66;100.00;97715.06;5064616;27;113696;-71
2022/01/22 01:08:33;;;;;;;4.53;1.67;;;-3.50;99.90;;;-3.64;100.00;97716.41;5062665;27;130288;-71
2022/01/22 01:11:06;;;;;;;3.80;1.80;;;-3.50;99.90;;;-3.53;100.00;97716.44;5062513;27;129733;-71
2022/01/22 01:13:41;;;;;;;3.50;1.60;;;-3.50;99.90;;;-3.67;100.00;97730.19;5054905;27;118559;-72
2022/01/22 01:16:20;;;;;;;3.28;1.85;;;-3.50;99.90;;;-3.49;100.00;97718.31;5063003;27;113342;-71
2022/01/22 01:32:48;;;;;;;4.25;1.65;;;-3.50;99.90;;;-3.35;100.00;97757.56;5055743;27;129283;-72
2022/01/22 01:35:16;;;;;;;4.20;1.88;;;-3.40;99.90;;;-3.72;100.00;97759.34;5059799;27;118612;-71
2022/01/22 01:37:45;;;;;;;3.83;1.92;;;-3.50;99.90;;;-3.86;100.00;97759.06;5076983;27;113915;-72
2022/01/22 01:40:18;;;;;;;4.10;1.80;;;-3.60;99.90;;;-3.78;100.00;97759.63;5062394;27;129654;-72
2022/01/22 01:42:53;;;;;;;4.40;1.98;;;-3.50;99.90;;;-3.82;100.00;97756.66;5055779;27;129751;-72
2022/01/22 01:45:22;;;;;;;4.93;2.28;;;-3.60;99.90;;;-3.83;100.00;97766.47;5045365;27;118919;-71
2022/01/22 01:47:57;;;;;;;5.30;1.98;;;-3.50;99.90;;;-3.94;100.00;97766.69;5080992;27;113098;-71
2022/01/22 01:50:27;;;;;;;3.83;2.15;;;-3.60;99.90;;;-3.95;100.00;97775.72;5059268;27;129843;-72
2022/01/22 01:53:08;;;;;;;6.90;2.00;;;-3.60;99.90;;;-3.92;100.00;97775.19;5045905;27;129332;-72
2022/01/22 01:55:49;;;;;;;5.00;1.95;;;-3.60;99.90;;;-3.84;100.00;97777.34;5059703;27;119269;-72
2022/01/22 01:58:26;;;;;;;5.32;2.00;;;-3.60;99.90;;;-3.77;100.00;97777.91;5039435;27;113807;-72
2022/01/22 02:00:55;;;;;;;6.55;2.10;;;-3.60;99.90;;;-3.71;100.00;97782.19;5062812;27;130001;-72
2022/01/22 02:03:24;;;;;;;4.95;2.55;;;-3.60;99.90;;;-3.77;100.00;97780.56;5075879;27;129778;-72
2022/01/22 02:06:01;;;;;;;7.35;2.33;;;-3.60;99.90;;;-3.83;100.00;97784.25;5057572;27;118731;-72
2022/01/22 02:08:33;;;;;;;7.00;2.65;;;-3.60;99.90;;;-3.74;100.00;97782.69;5061958;27;113654;-71
2022/01/22 02:11:06;;;;;;;5.85;2.50;;;-3.60;99.90;;;-3.55;100.00;97784.84;5045250;27;129036;-72
2022/01/22 02:14:06;;;;;;;6.22;2.85;;;-3.60;99.90;;;-3.48;100.00;97785.41;5072029;27;129343;-72
2022/01/22 02:25:26;;;;;;;4.35;1.92;;;-3.70;99.90;;;-3.76;100.00;97808.66;5077139;27;130410;-71
2022/01/22 02:27:55;;;;;;;5.22;2.35;;;-3.70;99.90;;;-3.77;100.00;97815.03;5079550;27;118858;-71
2022/01/22 02:30:30;;;;;;;4.35;1.77;;;-3.70;99.90;;;-3.85;100.00;97823.44;5061851;27;113614;-70
2022/01/22 02:33:30;;;;;;;3.53;1.50;;;-3.70;99.90;;;-3.98;100.00;97822.06;5059404;27;130459;-71
2022/01/22 02:36:04;;;;;;;6.75;2.00;;;-3.70;99.90;;;-4.07;100.00;97845.59;5059960;27;130659;-71
2022/01/22 02:38:41;;;;;;;5.38;2.35;;;-3.70;99.90;;;-3.93;100.00;97832.69;5061143;27;118585;-71
2022/01/22 02:41:13;;;;;;;3.20;1.67;;;-3.70;99.90;;;-3.99;100.00;97839.84;5059575;27;115120;-71
2022/01/22 02:43:42;;;;;;;5.30;1.75;;;-3.70;99.90;;;-3.97;100.00;97837.72;5058202;27;131676;-71
2022/01/22 02:46:15;;;;;;;2.95;1.50;;;-3.70;99.90;;;-3.97;100.00;97831.63;5077995;27;130335;-71
2022/01/22 02:48:44;;;;;;;2.88;1.60;;;-3.80;99.90;;;-3.90;100.00;97831.38;5052512;27;118833;-71
2022/01/22 02:51:13;;;;;;;3.63;1.73;;;-3.80;99.90;;;-4.04;100.00;97834.50;5061750;27;115678;-71
2022/01/22 02:53:43;;;;;;;5.45;1.52;;;-3.80;99.90;;;-4.11;100.00;97841.88;5078397;27;129329;-71
2022/01/22 02:56:11;;;;;;;5.40;1.60;;;-3.90;99.90;;;-4.10;100.00;97847.97;5060728;27;129714;-71
2022/01/22 02:58:40;;;;;;;2.85;1.60;;;-3.90;99.90;;;-4.25;100.00;97854.78;5051066;27;118779;-71
2022/01/22 03:01:09;;;;;;;3.33;1.73;;;-3.90;99.90;;;-4.28;100.00;97855.28;5058365;27;115188;-71
2022/01/22 03:03:40;;;;;;;1.75;1.25;;;-3.90;99.90;;;-4.33;100.00;97865.84;5061208;27;130094;-71
2022/01/22 03:06:09;;;;;;;3.40;1.50;;;-3.90;99.90;;;-4.25;100.00;97867.25;5065055;27;129796;-71
2022/01/22 03:08:39;;;;;;;2.80;1.40;;;-3.90;99.90;;;-4.34;100.00;97875.63;5064773;27;117999;-71
2022/01/22 03:11:18;;;;;;;6.15;2.20;;;-3.90;99.90;;;-4.17;100.00;97874.69;5049164;27;114446;-71
2022/01/22 03:16:55;;;;;;;2.28;1.67;;;-3.80;99.90;;;-4.01;100.00;97894.94;5063761;27;129761;-71
2022/01/22 03:19:54;;;;;;;3.05;1.80;;;-3.70;99.90;;;-4.02;100.00;97897.84;5062732;27;118966;-71
2022/01/22 03:22:31;;;;;;;3.80;1.60;;;-3.70;99.90;;;-4.11;100.00;97894.88;5064060;27;115781;-71
2022/01/22 03:27:47;;;;;;;2.60;1.63;;;-3.70;99.90;;;-3.93;100.00;97906.13;5054549;27;130381;-71
2022/01/22 03:30:17;;;;;;;3.17;1.70;;;-3.70;99.90;;;-4.07;100.00;97905.75;5063974;27;118967;-71
2022/01/22 03:32:49;;;;;;;3.35;1.50;;;-3.70;99.90;;;-4.02;100.00;97909.25;5065229;27;114959;-71
2022/01/22 03:35:26;;;;;;;3.53;1.58;;;-3.70;99.90;;;-4.22;100.00;97912.56;5062190;27;129483;-71
2022/01/22 03:37:58;;;;;;;4.93;2.10;;;-3.80;99.90;;;-4.21;100.00;97916.00;5081603;27;129761;-71
2022/01/22 03:40:30;;;;;;;3.67;1.77;;;-3.70;99.90;;;-4.27;100.00;97927.59;5063545;27;118722;-71
2022/01/22 03:43:00;;;;;;;2.70;1.50;;;-3.80;99.90;;;-4.29;100.00;97924.41;5065340;27;115531;-70
2022/01/22 03:45:29;;;;;;;4.82;1.73;;;-3.80;99.90;;;-4.14;100.00;97927.19;5063514;27;128886;-71
2022/01/22 03:47:59;;;;;;;4.40;1.80;;;-3.70;99.90;;;-4.09;100.00;97935.16;5078536;27;129693;-71
2022/01/22 03:50:29;;;;;;;3.60;1.88;;;-3.70;99.90;;;-4.14;100.00;97927.19;5063805;27;118256;-71
2022/01/22 03:52:57;;;;;;;4.50;2.30;;;-3.70;99.90;;;-4.21;100.00;97940.63;5047826;27;114204;-71
2022/01/22 03:55:36;;;;;;;3.35;1.80;;;-3.70;99.90;;;-4.24;100.00;97927.91;5080429;27;129774;-71
2022/01/22 03:58:42;;;;;;;3.42;1.90;;;-3.70;99.90;;;-4.15;100.00;97952.06;5022662;27;128568;-71
2022/01/22 04:04:44;;;;;;;2.35;1.67;;;-3.70;99.90;;;-4.12;100.00;97951.56;5046927;27;114100;-71
2022/01/22 04:10:10;;;;;;;3.92;1.85;;;-3.70;99.90;;;-4.08;100.00;97960.63;5057045;27;130270;-71
2022/01/22 04:12:47;;;;;;;2.90;1.73;;;-3.60;99.90;;;-4.17;100.00;97975.38;5062743;27;117388;-71
2022/01/22 04:15:21;;;;;;;3.50;2.20;;;-3.70;99.90;;;-4.24;100.00;97990.69;5077304;27;114871;-71
2022/01/22 04:26:19;;;;;;;5.07;2.17;;;-3.70;99.90;;;-3.89;100.00;97997.34;5062527;27;115043;-70
2022/01/22 04:28:48;;;;;;;3.45;1.80;;;-3.70;99.90;;;-3.89;100.00;97992.03;5057652;27;130078;-72
2022/01/22 04:31:19;;;;;;;4.90;2.40;;;-3.70;99.90;;;-3.87;100.00;98021.72;5063628;27;129888;-72
2022/01/22 04:33:48;;;;;;;3.67;2.10;;;-3.70;99.90;;;-3.94;100.00;98015.81;5056522;27;117915;-72
2022/01/22 04:36:16;;;;;;;4.75;2.22;;;-3.70;99.90;;;-3.93;100.00;98028.03;5046813;27;114570;-72
2022/01/22 04:38:45;;;;;;;3.53;1.98;;;-3.70;99.90;;;-4.16;100.00;98019.34;5056411;27;129930;-72
2022/01/22 04:41:13;;;;;;;5.47;2.53;;;-3.80;99.90;;;-4.16;100.00;98029.94;5060743;27;130385;-72
2022/01/22 04:43:43;;;;;;;4.03;2.17;;;-3.90;99.90;;;-4.27;100.00;98042.34;5063793;27;119363;-72
2022/01/22 04:46:21;;;;;;;3.70;2.13;;;-4.00;99.90;;;-4.39;100.00;98036.38;5064999;27;115283;-72
2022/01/22 04:49:06;;;;;;;5.18;2.28;;;-4.10;99.90;;;-4.35;100.00;98035.63;5068585;27;129222;-72
2022/01/22 04:57:07;;;;;;;5.70;2.10;;;-4.10;99.90;;;-4.35;100.00;98038.28;5074765;27;115046;-72
2022/01/22 04:59:37;;;;;;;4.00;2.13;;;-4.10;99.90;;;-4.35;100.00;98043.56;5061304;27;129688;-71
2022/01/22 05:02:05;;;;;;;4.88;2.40;;;-4.10;99.90;;;-4.41;100.00;98049.06;5063163;27;129985;-71
2022/01/22 05:04:58;;;;;;;5.32;2.45;;;-4.10;99.90;;;-4.48;100.00;98059.84;5061955;27;117634;-71
2022/01/22 05:07:59;;;;;;;3.17;2.03;;;-4.10;99.90;;;-4.47;100.00;98060.63;5048693;27;114476;-72
2022/01/22 05:10:54;;;;;;;3.58;1.98;;;-4.10;99.90;;;-4.36;100.00;98057.84;5055391;27;130484;-71
2022/01/22 05:13:22;;;;;;;5.88;2.55;;;-4.10;99.90;;;-4.31;100.00;98058.97;5044852;27;128522;-71
2022/01/22 05:15:51;;;;;;;6.25;2.83;;;-4.10;99.90;;;-4.34;100.00;98065.56;5063154;27;118563;-71
2022/01/22 05:21:09;;;;;;;5.60;2.33;;;-4.10;99.90;;;-4.38;100.00;98075.88;5063671;27;130332;-71
2022/01/22 05:23:40;;;;;;;5.82;2.20;;;-4.00;99.90;;;-4.29;100.00;98083.34;5053149;27;129955;-71
2022/01/22 05:26:24;;;;;;;4.78;2.25;;;-4.00;99.90;;;-4.33;100.00;98088.34;5078973;27;118648;-71
2022/01/22 05:29:17;;;;;;;3.90;2.40;;;-4.00;99.90;;;-4.25;100.00;98085.25;5058103;27;115525;-71
2022/01/22 05:32:30;;;;;;;5.93;1.98;;;-4.00;99.90;;;-4.37;100.00;98097.84;5003238;27;129978;-72
2022/01/22 05:38:07;;;;;;;3.90;2.13;;;-4.00;99.90;;;-4.38;100.00;98107.66;5062958;27;119227;-71
2022/01/22 05:40:36;;;;;;;6.80;2.08;;;-4.00;99.90;;;-4.41;100.00;98113.44;5061573;27;114715;-71
2022/01/22 05:43:08;;;;;;;7.70;2.50;;;-4.00;99.90;;;-4.45;100.00;98117.63;5059145;27;130599;-71
2022/01/22 05:45:36;;;;;;;4.03;2.47;;;-4.00;99.90;;;-4.41;100.00;98116.09;5062281;27;130533;-71
2022/01/22 05:48:05;;;;;;;5.38;2.50;;;-4.00;99.90;;;-4.43;100.00;98110.22;5064767;27;119672;-72
2022/01/22 05:50:44;;;;;;;4.05;2.33;;;-4.00;99.90;;;-4.38;100.00;98128.84;5060575;27;113801;-72
2022/01/22 05:53:28;;;;;;;5.53;2.35;;;-4.00;99.90;;;-4.39;100.00;98137.81;5061795;27;129624;-72
2022/01/22 06:01:40;;;;;;;6.07;2.08;;;-4.20;99.90;;;-4.64;100.00;98140.13;5059250;27;115805;-71
2022/01/22 06:04:19;;;;;;;4.05;2.25;;;-4.20;99.90;;;-4.54;100.00;98156.16;5044275;27;129451;-73
2022/01/22 06:06:50;;;;;;;7.70;2.60;;;-4.20;99.90;;;-4.58;100.00;98160.34;5069125;27;129778;-71
2022/01/22 06:09:21;;;;;;;6.90;2.55;;;-4.20;99.90;;;-4.70;100.00;98163.91;5058737;27;119100;-72
2022/01/22 06:12:04;;;;;;;5.20;2.55;;;-4.20;99.90;;;-4.63;100.00;98176.16;5062994;27;114600;-73
2022/01/22 06:14:55;;;;;;;5.32;2.25;;;-4.20;99.90;;;-4.62;100.00;98180.44;5061436;27;129238;-73
2022/01/22 06:17:26;;;;;;;5.22;2.65;;;-4.20;95.40;;;-4.56;98.92;98184.75;5055216;27;130170;-71
2022/01/22 06:19:59;;;;;;;5.60;2.60;;;-4.20;93.30;;;-4.44;97.53;98188.09;5058266;27;118864;-72
2022/01/22 06:22:28;;;;;;;4.75;2.95;;;-4.20;87.50;;;-4.42;97.43;98185.97;5078264;27;115843;-72
2022/01/22 06:24:59;;;;;;;4.72;2.25;;;-4.10;80.10;;;-4.45;97.35;98202.38;5061778;27;129815;-71
2022/01/22 06:27:30;;;;;;;4.40;2.20;;;-4.10;72.80;;;-4.44;97.43;98197.84;5044366;27;128982;-71
2022/01/22 06:29:59;;;;;;;5.38;2.65;;;-4.10;67.00;;;-4.43;96.80;98194.19;5059437;27;119153;-72
2022/01/22 06:32:37;;;;;;;4.82;2.60;;;-4.10;73.00;;;-4.44;97.19;98209.28;5074982;27;116121;-72
2022/01/22 06:35:07;;;;;;;5.88;2.38;;;-4.10;68.00;;;-4.77;96.96;98210.94;5044611;27;129052;-72
2022/01/22 06:37:39;;;;;;;7.00;2.47;;;-4.30;62.10;;;-4.80;96.97;98206.16;5062657;27;129605;-72
2022/01/22 06:43:46;;;;;;;4.45;2.20;;;-4.50;50.20;;;-4.93;96.28;98225.00;5026712;27;117045;-72
2022/01/22 06:46:25;;;;;;;4.63;2.55;;;-4.50;44.60;;;-5.00;96.04;98235.75;5037056;27;128211;-72
2022/01/22 06:49:11;;;;;;;5.75;2.83;;;-4.50;46.60;;;-5.11;96.39;98240.06;5050110;27;129619;-72
2022/01/22 06:52:02;;;;;;;4.60;2.20;;;-4.60;43.10;;;-5.20;95.98;98244.16;5043805;27;118546;-73
2022/01/22 06:54:30;;;;;;;5.45;2.03;;;-4.70;39.10;;;-5.13;95.34;98255.34;5029511;27;113889;-72
2022/01/22 06:57:02;;;;;;;4.43;2.30;;;-4.70;39.30;;;-5.04;95.34;98263.72;5027011;27;128952;-72
2022/01/22 06:59:33;;;;;;;4.57;2.20;;;-4.70;41.40;;;-4.92;95.37;98266.31;5043864;27;130447;-72
2022/01/22 07:02:02;;;;;;;5.55;2.55;;;-4.70;39.80;;;-4.72;94.76;98287.78;5044112;27;118406;-73
2022/01/22 07:04:36;;;;;;;6.47;2.50;;;-4.60;43.00;;;-4.76;95.34;98299.88;5043073;27;115384;-72
2022/01/22 07:07:31;;;;;;;6.90;2.67;;;-4.60;44.20;;;-4.91;95.88;98297.00;5057422;27;130947;-73
2022/01/22 07:09:59;;;;;;;5.05;2.58;;;-4.60;45.10;;;-4.93;97.00;98299.09;5040495;27;130828;-72
2022/01/22 07:12:30;;;;;;;4.78;2.50;;;-4.50;46.40;;;-4.86;96.95;98302.41;5043825;27;118704;-72
2022/01/22 07:14:59;;;;;;;6.38;2.80;;;-4.50;46.90;;;-4.67;96.55;98300.31;5043883;27;115795;-72
2022/01/22 07:17:29;;;;;;;7.88;3.05;;;-4.40;48.50;;;-4.72;96.50;98308.97;5043670;27;129545;-73
2022/01/22 07:20:14;;;;;;;7.97;3.50;;;-4.50;47.60;;;-4.68;96.59;98313.78;5023840;28;129356;-72
2022/01/22 07:22:51;;;;;;;5.93;2.85;;;-4.40;49.20;;;-4.45;96.04;98332.16;5020890;27;117752;-71
2022/01/22 07:25:34;;;;;;;6.22;3.20;;;-4.30;47.00;;;-4.46;95.97;98327.88;5042698;27;113531;-71
2022/01/22 07:28:19;;;;;;;9.45;3.70;;;-4.30;48.50;;;-4.31;95.41;98339.75;5023772;27;129085;-73
2022/01/22 07:30:48;;;;;;;6.90;3.30;;;-4.20;45.90;;;-4.32;94.90;98340.81;5027476;27;128547;-72
2022/01/22 07:33:20;;;;;;;11.73;4.25;;;-4.20;41.80;;;-4.18;94.75;98356.09;5043838;27;118686;-72
2022/01/22 07:35:49;;;;;;;5.93;3.00;;;-4.10;44.90;;;-4.17;94.80;98346.31;5024480;28;114786;-70
2022/01/22 07:38:20;;;;;;;5.75;3.13;;;-4.10;44.00;;;-4.04;94.64;98361.06;5039792;27;129836;-72
2022/01/22 07:40:49;;;;;;;9.00;4.28;;;-4.10;43.90;;;-3.89;94.08;98369.25;5028838;27;128916;-77
2022/01/22 07:43:45;;;;;;;8.20;3.38;;;-4.00;41.30;;;-3.80;93.85;98377.59;5044074;27;118952;-77
2022/01/22 07:46:27;;;;;;;12.20;5.10;;;-3.90;39.70;;;-3.76;93.85;98373.38;5044773;27;114517;-77
2022/01/22 07:49:05;;;;;;;8.82;4.38;;;-3.90;40.20;;;-3.86;92.95;98373.25;5044301;27;130358;-77
2022/01/22 07:51:46;;;;;;;7.72;3.90;;;-3.80;36.30;;;-3.98;94.03;98382.09;5042853;27;130555;-76
2022/01/22 07:54:22;;;;;;;10.30;4.45;;;-3.90;36.50;;;-3.92;94.35;98382.97;5047773;27;118598;-76
2022/01/22 07:56:51;;;;;;;8.43;3.72;;;-3.80;38.60;;;-3.72;94.07;98389.63;5046281;27;115153;-76
2022/01/22 07:59:22;;;;;;;6.47;3.55;;;-3.80;37.90;;;-3.82;94.09;98390.25;5029583;27;129567;-77
2022/01/22 08:02:00;;;;;;;8.55;4.10;;;-3.80;36.50;;;-3.71;93.18;98394.69;5061251;27;129426;-76
2022/01/22 08:04:38;;;;;;;8.98;3.80;;;-3.70;37.40;;;-3.78;93.46;98402.00;5044305;27;119100;-78
2022/01/22 08:07:32;;;;;;;9.90;3.95;;;-3.80;35.30;;;-3.86;93.97;98405.06;5016191;28;115829;-78
2022/01/22 08:10:19;;;;;;;7.20;3.50;;;-3.80;37.50;;;-3.68;93.86;98412.72;5043885;27;128992;-76
2022/01/22 08:12:55;;;;;;;8.18;3.13;;;-3.70;38.30;;;-3.62;93.05;98417.03;5041052;27;129692;-76
2022/01/22 08:15:25;;;;;;;9.00;3.17;;;-3.70;40.50;;;-3.95;94.46;98417.94;5042779;27;118933;-78
2022/01/22 08:17:55;;;;;;;6.60;3.15;;;-3.80;37.70;;;-3.92;94.65;98411.34;5045430;27;114804;-76
2022/01/22 08:20:27;;;;;;;5.75;3.45;;;-3.80;37.20;;;-3.87;94.14;98416.72;5026406;27;128528;-76
2022/01/22 08:22:56;;;;;;;8.50;4.00;;;-3.70;34.60;;;-3.98;95.03;98424.50;5042587;27;129681;-75
2022/01/22 08:25:46;;;;;;;8.02;4.13;;;-3.80;43.80;;;-3.94;94.77;98424.03;5035130;27;119185;-75
2022/01/22 08:31:19;;;;;;;5.80;3.00;;;-3.80;33.50;;;-3.98;94.55;98429.00;5043320;27;129786;-76
2022/01/22 08:36:35;;;;;;;8.68;3.40;;;-3.70;32.10;;;-3.78;93.27;98422.41;5051179;27;118645;-76
2022/01/22 08:39:06;;;;;;;5.32;2.97;;;-3.80;31.90;;;-3.86;93.13;98442.19;5057485;27;116246;-75
2022/01/22 08:41:36;;;;;;;6.57;3.20;;;-3.80;33.60;;;-4.02;93.86;98444.59;5028822;27;130725;-75
2022/01/22 08:44:06;;;;;;;8.05;3.70;;;-3.80;34.10;;;-4.13;93.72;98458.72;5063622;27;129329;-76
2022/01/22 08:46:36;;;;;;;5.95;3.47;;;-3.90;31.10;;;-4.13;94.05;98450.78;5053671;27;118761;-74
2022/01/22 08:49:06;;;;;;;6.63;3.10;;;-3.90;31.30;;;-4.06;93.80;98450.63;5056328;27;115104;-74
2022/01/22 08:51:39;;;;;;;6.82;3.35;;;-3.90;28.90;;;-3.89;93.03;98462.03;5059242;27;129793;-74
2022/01/22 08:54:10;;;;;;;6.07;3.50;;;-3.80;27.60;;;-3.82;91.34;98464.50;5049132;27;129739;-75
2022/01/22 08:56:41;;;;;;;8.27;4.07;;;-3.80;22.70;;;-3.65;91.02;98469.78;5053251;27;118549;-75
2022/01/22 08:59:12;;;;;;;6.65;3.08;;;-3.70;22.30;;;-3.91;91.41;98465.94;5028607;27;115401;-76
2022/01/22 09:01:48;;;;;;;6.75;3.58;;;-3.80;23.10;;;-3.63;91.56;98468.50;5045356;27;129758;-75
2022/01/22 09:04:37;;;;;;;9.10;3.45;;;-3.70;25.50;;;-3.42;90.53;98490.00;5045375;27;129222;-76
2022/01/22 09:07:09;;;;;;;7.68;4.15;;;-3.60;20.70;;;-3.19;90.19;98477.56;5057558;27;118785;-76
2022/01/22 09:09:54;;;;;;;8.10;3.30;;;-3.40;22.10;;;-2.95;88.34;98488.72;5011204;28;114320;-76
2022/01/22 09:12:43;;;;;;;6.72;3.50;;;-3.30;16.20;;;-2.86;88.28;98492.56;5045700;27;130889;-75
2022/01/22 09:15:28;;;;;;;8.90;4.25;;;-3.20;18.30;;;-2.98;88.82;98476.75;5048630;27;128766;-76
2022/01/22 09:17:59;;;;;;;8.88;4.80;;;-3.30;18.20;;;-3.01;88.45;98490.50;5034542;27;117021;-75
2022/01/22 09:20:44;;;;;;;8.73;4.90;;;-3.30;20.60;;;-2.54;87.64;98489.16;5031210;27;114031;-75
2022/01/22 09:23:14;;;;;;;12.88;5.05;;;-3.20;27.80;;;-2.79;86.96;98492.34;5051892;27;129479;-75
2022/01/22 09:25:44;;;;;;;8.52;3.40;;;-3.20;18.10;;;-3.25;89.01;98504.03;5037961;27;129848;-75
2022/01/22 09:28:14;;;;;;;7.90;3.50;;;-3.40;20.00;;;-3.36;90.13;98498.84;5028549;27;117687;-75
2022/01/22 09:30:47;;;;;;;9.93;4.65;;;-3.30;25.40;;;-3.68;90.58;98492.28;5037905;27;114211;-75
2022/01/22 09:33:18;;;;;;;10.82;4.25;;;-3.60;21.20;;;-3.30;89.97;98503.97;5027874;27;128684;-75
2022/01/22 09:36:17;;;;;;;8.77;4.18;;;-3.50;24.30;;;-3.45;89.71;98509.84;4991222;27;130324;-75
2022/01/22 09:39:05;;;;;;;7.85;3.97;;;-3.40;16.80;;;-3.03;88.92;98511.19;5051529;27;117997;-74
2022/01/22 09:41:48;;;;;;;;;;;-3.40;19.00;;;-3.02;88.02;98526.09;5056067;27;114047;-74
2022/01/22 09:44:30;;;;;;;8.20;3.75;;;-3.30;16.00;;;-2.80;86.84;98512.00;5047986;27;129621;-74
2022/01/22 09:47:22;;;;;;;7.60;3.70;;;-3.20;10.00;;;-2.92;87.00;98520.09;5016601;27;130105;-74
2022/01/22 09:50:09;;;;;;;6.15;3.47;;;-3.10;10.20;;;-2.71;85.94;98542.41;5058844;27;119070;-76
2022/01/22 09:52:58;;;;;;;6.93;3.80;;;-3.10;8.50;;;-2.19;84.94;98523.28;5054876;27;115864;-76
2022/01/22 09:55:45;;;;;;;8.85;4.82;;;-2.90;10.10;;;-1.79;82.21;98531.88;5056173;27;129861;-76
2022/01/22 09:58:32;;;;;;;6.75;3.95;;;-2.70;3.90;;;-2.50;84.42;98542.63;5049940;27;130929;-76
2022/01/22 10:01:22;;;;;;;8.43;4.10;;;-3.00;4.50;;;-2.45;82.95;98540.00;5046399;27;118493;-74
2022/01/22 10:03:51;;;;;;;6.07;3.55;;;-2.90;1.00;;;-2.44;83.13;98541.63;5028419;27;114177;-75
2022/01/22 10:06:53;;;;;;;8.00;3.78;;;-2.80;5.10;;;-2.41;83.36;98535.81;5025211;27;130088;-76
2022/01/22 10:09:36;;;;;;;8.30;4.57;;;-2.80;2.80;;;-1.89;82.45;98537.88;5054701;27;129511;-76
2022/01/22 10:12:26;;;;;;;6.43;3.50;;;-2.60;2.80;;;-1.62;79.26;98539.72;5046230;27;119507;-76
2022/01/22 10:15:17;;;;;;;9.63;4.55;;;-2.60;1.00;;;-2.30;81.49;98548.16;5034127;27;114850;-75
2022/01/22 10:17:49;;;;;;;8.25;4.63;;;-2.70;1.00;;;-2.01;82.08;98534.59;5044113;27;129705;-75
2022/01/22 10:20:38;;;;;;;9.27;5.32;;;-2.60;1.00;;;-1.47;79.19;98550.44;5046169;27;129716;-76
2022/01/22 10:23:17;;;;;;;13.45;7.57;;;-2.40;1.00;;;-0.98;78.81;98545.94;5036369;27;117527;-75
2022/01/22 10:25:52;;;;;;;13.10;6.15;;;-2.20;1.00;;;-0.34;75.99;98533.38;5049275;27;115062;-76
2022/01/22 10:28:24;;;;;;;7.47;3.83;;;-1.90;1.00;;;-1.45;77.98;98543.03;5054350;27;129821;-76
2022/01/22 10:30:58;;;;;;;7.75;4.13;;;-2.30;1.00;;;-2.14;81.43;98553.63;5044985;27;129827;-75
2022/01/22 10:33:41;;;;;;;7.05;3.63;;;-2.60;1.00;;;-2.26;83.66;98554.59;5045444;27;118317;-76
2022/01/22 10:36:29;;;;;;;13.60;5.57;;;-2.60;4.90;;;-1.84;82.96;98548.59;5062902;27;114687;-75
2022/01/22 10:39:27;;;;;;;7.50;4.28;;;-2.60;7.30;;;-2.04;82.70;98556.34;5060943;27;128717;-76
2022/01/22 10:41:56;;;;;;;6.82;4.07;;;-2.50;2.80;;;-2.07;82.50;98552.38;5043569;27;129720;-75
2022/01/22 10:44:46;;;;;;;10.57;5.28;;;-2.50;1.00;;;-0.80;79.70;98558.81;5054881;27;118752;-75
2022/01/22 10:47:20;;;;;;;10.05;5.53;;;-2.00;4.60;;;-1.23;78.79;98554.59;5056844;27;115214;-76
2022/01/22 10:49:49;;;;;;;12.65;6.93;;;-2.20;1.00;;;-1.12;78.59;98558.94;5043264;27;131325;-75
2022/01/22 10:52:20;;;;;;;14.57;7.18;;;-2.30;1.00;;;-1.59;79.95;98568.47;5051526;27;130315;-76
2022/01/22 10:55:04;;;;;;;13.77;7.82;;;-2.40;1.50;;;-1.28;79.32;98568.66;5044340;27;119819;-76
2022/01/22 10:57:32;;;;;;;9.23;4.68;;;-2.20;5.00;;;-2.37;82.18;98561.66;5044386;27;114965;-75
2022/01/22 11:00:00;;;;;;;11.57;5.60;;;-2.70;2.00;;;-1.97;83.09;98567.59;5044295;27;129555;-76
2022/01/22 11:02:36;;;;;;;9.50;4.78;;;-2.50;6.00;;;-2.21;83.99;98567.91;5029877;27;129949;-76
2022/01/22 11:05:06;;;;;;;10.57;4.97;;;-2.50;6.10;;;-2.14;83.94;98566.91;5050095;27;119166;-75
2022/01/22 11:07:37;;;;;;;11.02;5.97;;;-2.50;9.30;;;-1.99;84.48;98575.03;5052091;27;114643;-76
2022/01/22 11:10:08;;;;;;;11.07;4.82;;;-2.50;11.80;;;-2.89;86.08;98581.47;5042266;27;129611;-76
2022/01/22 11:12:37;;;;;;;14.52;6.35;;;-2.90;6.90;;;-2.97;87.58;98587.22;5043385;27;130216;-77
2022/01/22 11:15:07;;;;;;;10.55;5.10;;;-2.90;10.10;;;-3.08;88.16;98573.00;5052634;27;118724;-75
2022/01/22 11:17:37;;;;;;;8.68;4.95;;;-2.90;8.60;;;-3.08;88.89;98582.81;5045255;27;114310;-75
2022/01/22 11:20:08;;;;;;;13.52;6.50;;;-2.90;10.50;;;-2.70;87.87;98589.16;5047119;27;129486;-75
2022/01/22 11:22:37;;;;;;;10.43;5.70;;;-2.80;11.00;;;-3.03;88.90;98587.41;5052314;27;129827;-75
2022/01/22 11:25:08;;;;;;;11.55;6.00;;;-2.80;12.70;;;-2.93;89.93;98593.66;5042908;27;118889;-76
2022/01/22 11:27:38;;;;;;;11.60;6.22;;;-2.80;15.50;;;-2.44;88.43;98600.09;5049866;27;114592;-76
2022/01/22 11:30:10;;;;;;;13.05;6.55;;;-2.80;23.00;;;-2.67;88.76;98601.94;5053176;27;129596;-76
2022/01/22 11:32:46;;;;;;;11.18;5.35;;;-2.90;17.60;;;-3.00;90.02;98598.31;5049290;27;130891;-76
2022/01/22 11:35:23;;;;;;;10.48;5.57;;;-3.00;22.80;;;-3.17;92.32;98608.16;5049853;27;118431;-76
2022/01/22 11:38:02;;;;;;;13.35;5.90;;;-3.00;29.30;;;-3.29;92.54;98600.28;5054616;27;116066;-75
2022/01/22 11:40:33;;;;;;;11.57;6.07;;;-3.00;24.30;;;-3.34;93.07;98611.63;5063775;27;130080;-77
2022/01/22 11:43:06;;;;;;;9.90;5.68;;;-3.10;27.30;;;-3.19;93.11;98605.75;5053011;27;130188;-75
2022/01/22 11:45:47;;;;;;;10.63;5.20;;;-3.00;31.10;;;-3.07;93.29;98613.59;5046057;27;118938;-76
2022/01/22 11:48:19;;;;;;;11.75;6.90;;;-3.10;52.50;;;-3.26;94.97;98611.25;5048862;27;115155;-76
2022/01/22 11:50:51;;;;;;;11.75;5.45;;;-3.10;58.70;;;-3.38;95.76;98607.88;5053948;27;129627;-75
2022/01/22 11:53:30;;;;;;;10.48;5.75;;;-3.20;57.40;;;-3.17;95.87;98608.16;5050126;27;128984;-76
2022/01/22 11:56:27;;;;;;;10.60;5.88;;;-3.20;64.80;;;-2.66;94.53;98603.56;5041595;27;118553;-75